Terminal Aerodrome Forecast
Issued by NWS

Home | Current Version | Previous Version | Graphics & Text | Print | Product List | Glossary On
Versions: 1 2 3 4 5 6 7 8 9 10 11 12 13 14
000
FTUS43 KICT 191615 AAA
TAFHUT
TAF AMD
KHUT 191615Z 1916/2012 17020G30KT P6SM FEW060 SCT150
     FM191800 18026G38KT P6SM FEW200
     FM200200 17018G22KT P6SM FEW250=

USA.gov is the U.S. government's official web portal to all federal, state and local government web resources and services.